sensor_id;sensor_type;location;lat;lon;timestamp;temperature;humidity
13336;DHT22;6737;51.480;11.962;2022-08-19T00:00:14;20.40;99.90
13336;DHT22;6737;51.480;11.962;2022-08-19T00:02:41;20.50;99.90
13336;DHT22;6737;51.480;11.962;2022-08-19T00:05:09;20.50;99.90
13336;DHT22;6737;51.480;11.962;2022-08-19T00:07:36;20.50;99.90
13336;DHT22;6737;51.480;11.962;2022-08-19T00:10:05;20.40;99.90
13336;DHT22;6737;51.480;11.962;2022-08-19T00:12:33;20.50;99.90
13336;DHT22;6737;51.480;11.962;2022-08-19T00:15:00;20.40;99.90
13336;DHT22;6737;51.480;11.962;2022-08-19T00:17:25;20.40;99.90
13336;DHT22;6737;51.480;11.962;2022-08-19T00:19:51;20.40;99.90
13336;DHT22;6737;51.480;11.962;2022-08-19T00:22:17;20.40;99.90
13336;DHT22;6737;51.480;11.962;2022-08-19T00:24:46;20.40;99.90
13336;DHT22;6737;51.480;11.962;2022-08-19T00:27:12;20.40;99.90
13336;DHT22;6737;51.480;11.962;2022-08-19T00:29:38;20.30;99.90
13336;DHT22;6737;51.480;11.962;2022-08-19T00:32:05;20.30;99.90
13336;DHT22;6737;51.480;11.962;2022-08-19T00:34:32;20.30;99.90
13336;DHT22;6737;51.480;11.962;2022-08-19T00:36:58;20.30;99.90
13336;DHT22;6737;51.480;11.962;2022-08-19T00:39:25;20.30;99.90
13336;DHT22;6737;51.480;11.962;2022-08-19T00:41:51;20.30;99.90
13336;DHT22;6737;51.480;11.962;2022-08-19T00:44:23;20.30;99.90
13336;DHT22;6737;51.480;11.962;2022-08-19T00:46:51;20.40;99.90
13336;DHT22;6737;51.480;11.962;2022-08-19T00:51:55;20.40;99.90
13336;DHT22;6737;51.480;11.962;2022-08-19T00:54:23;20.30;99.90
13336;DHT22;6737;51.480;11.962;2022-08-19T00:56:50;20.30;99.90
13336;DHT22;6737;51.480;11.962;2022-08-19T00:59:18;20.30;99.90
13336;DHT22;6737;51.480;11.962;2022-08-19T01:01:45;20.30;99.90
13336;DHT22;6737;51.480;11.962;2022-08-19T01:04:12;20.30;99.90
13336;DHT22;6737;51.480;11.962;2022-08-19T01:06:40;20.30;99.90
13336;DHT22;6737;51.480;11.962;2022-08-19T01:09:09;20.30;99.90
13336;DHT22;6737;51.480;11.962;2022-08-19T01:11:39;20.30;99.90
13336;DHT22;6737;51.480;11.962;2022-08-19T01:14:07;20.20;99.90
13336;DHT22;6737;51.480;11.962;2022-08-19T01:16:34;20.20;99.90
13336;DHT22;6737;51.480;11.962;2022-08-19T01:19:02;20.20;99.90
13336;DHT22;6737;51.480;11.962;2022-08-19T01:21:39;20.10;99.90
13336;DHT22;6737;51.480;11.962;2022-08-19T01:24:07;20.10;99.90
13336;DHT22;6737;51.480;11.962;2022-08-19T01:26:40;20.10;99.90
13336;DHT22;6737;51.480;11.962;2022-08-19T01:29:08;20.00;99.90
13336;DHT22;6737;51.480;11.962;2022-08-19T01:31:34;19.90;99.90
13336;DHT22;6737;51.480;11.962;2022-08-19T01:34:03;19.90;99.90
13336;DHT22;6737;51.480;11.962;2022-08-19T01:38:58;19.80;99.90
13336;DHT22;6737;51.480;11.962;2022-08-19T01:41:25;19.80;99.90
13336;DHT22;6737;51.480;11.962;2022-08-19T01:43:52;19.80;99.90
13336;DHT22;6737;51.480;11.962;2022-08-19T01:46:18;19.70;99.90
13336;DHT22;6737;51.480;11.962;2022-08-19T01:48:45;19.70;99.90
13336;DHT22;6737;51.480;11.962;2022-08-19T01:51:12;19.70;99.90
13336;DHT22;6737;51.480;11.962;2022-08-19T01:53:39;19.60;99.90
13336;DHT22;6737;51.480;11.962;2022-08-19T01:56:05;19.60;99.90
13336;DHT22;6737;51.480;11.962;2022-08-19T01:58:38;19.60;99.90
13336;DHT22;6737;51.480;11.962;2022-08-19T02:01:07;19.60;99.90
13336;DHT22;6737;51.480;11.962;2022-08-19T02:03:33;19.60;99.90
13336;DHT22;6737;51.480;11.962;2022-08-19T02:06:01;19.60;99.90
13336;DHT22;6737;51.480;11.962;2022-08-19T02:08:30;19.60;99.90
13336;DHT22;6737;51.480;11.962;2022-08-19T02:10:56;19.70;99.90
13336;DHT22;6737;51.480;11.962;2022-08-19T02:13:27;19.70;99.90
13336;DHT22;6737;51.480;11.962;2022-08-19T02:15:53;19.80;99.90
13336;DHT22;6737;51.480;11.962;2022-08-19T02:18:19;19.80;99.90
13336;DHT22;6737;51.480;11.962;2022-08-19T02:20:45;19.90;99.90
13336;DHT22;6737;51.480;11.962;2022-08-19T02:23:13;19.80;99.90
13336;DHT22;6737;51.480;11.962;2022-08-19T02:25:40;19.90;99.90
13336;DHT22;6737;51.480;11.962;2022-08-19T02:28:06;19.90;99.90
13336;DHT22;6737;51.480;11.962;2022-08-19T02:30:32;19.80;99.90
13336;DHT22;6737;51.480;11.962;2022-08-19T02:32:58;19.80;99.90
13336;DHT22;6737;51.480;11.962;2022-08-19T02:35:25;19.80;99.90
13336;DHT22;6737;51.480;11.962;2022-08-19T02:37:51;19.80;99.90
13336;DHT22;6737;51.480;11.962;2022-08-19T02:40:35;19.80;99.90
13336;DHT22;6737;51.480;11.962;2022-08-19T02:43:06;19.70;99.90
13336;DHT22;6737;51.480;11.962;2022-08-19T02:45:37;19.70;99.90
13336;DHT22;6737;51.480;11.962;2022-08-19T02:48:05;19.80;99.90
13336;DHT22;6737;51.480;11.962;2022-08-19T02:50:31;19.70;99.90
13336;DHT22;6737;51.480;11.962;2022-08-19T02:52:57;19.80;99.90
13336;DHT22;6737;51.480;11.962;2022-08-19T02:55:23;19.80;99.90
13336;DHT22;6737;51.480;11.962;2022-08-19T02:57:49;19.80;99.90
13336;DHT22;6737;51.480;11.962;2022-08-19T03:00:15;19.80;99.90
13336;DHT22;6737;51.480;11.962;2022-08-19T03:02:41;19.80;99.90
13336;DHT22;6737;51.480;11.962;2022-08-19T03:05:09;19.70;99.90
13336;DHT22;6737;51.480;11.962;2022-08-19T03:07:36;19.70;99.90
13336;DHT22;6737;51.480;11.962;2022-08-19T03:10:03;19.70;99.90
13336;DHT22;6737;51.480;11.962;2022-08-19T03:12:29;19.70;99.90
13336;DHT22;6737;51.480;11.962;2022-08-19T03:14:55;19.70;99.90
13336;DHT22;6737;51.480;11.962;2022-08-19T03:17:21;19.80;99.90
13336;DHT22;6737;51.480;11.962;2022-08-19T03:19:47;19.80;99.90
13336;DHT22;6737;51.480;11.962;2022-08-19T03:22:12;19.70;99.90
13336;DHT22;6737;51.480;11.962;2022-08-19T03:24:39;19.80;99.90
13336;DHT22;6737;51.480;11.962;2022-08-19T03:27:06;19.80;99.90
13336;DHT22;6737;51.480;11.962;2022-08-19T03:29:32;19.80;99.90
13336;DHT22;6737;51.480;11.962;2022-08-19T03:32:00;19.80;99.90
13336;DHT22;6737;51.480;11.962;2022-08-19T03:34:29;19.80;99.90
13336;DHT22;6737;51.480;11.962;2022-08-19T03:36:56;19.80;99.90
13336;DHT22;6737;51.480;11.962;2022-08-19T03:39:24;19.80;99.90
13336;DHT22;6737;51.480;11.962;2022-08-19T03:41:52;19.90;99.90
13336;DHT22;6737;51.480;11.962;2022-08-19T03:44:20;19.90;99.90
13336;DHT22;6737;51.480;11.962;2022-08-19T03:46:49;19.90;99.90
13336;DHT22;6737;51.480;11.962;2022-08-19T03:49:16;19.90;99.90
13336;DHT22;6737;51.480;11.962;2022-08-19T03:51:43;19.90;99.90
13336;DHT22;6737;51.480;11.962;2022-08-19T03:54:12;19.90;99.90
13336;DHT22;6737;51.480;11.962;2022-08-19T03:56:40;19.90;99.90
13336;DHT22;6737;51.480;11.962;2022-08-19T03:59:12;19.90;99.90
13336;DHT22;6737;51.480;11.962;2022-08-19T04:01:39;19.90;99.90
13336;DHT22;6737;51.480;11.962;2022-08-19T04:04:05;19.80;99.90
13336;DHT22;6737;51.480;11.962;2022-08-19T04:06:33;19.80;99.90
13336;DHT22;6737;51.480;11.962;2022-08-19T04:09:02;19.80;99.90
13336;DHT22;6737;51.480;11.962;2022-08-19T04:11:32;19.80;99.90
13336;DHT22;6737;51.480;11.962;2022-08-19T04:13:59;19.90;99.90
13336;DHT22;6737;51.480;11.962;2022-08-19T04:16:27;19.90;99.90
13336;DHT22;6737;51.480;11.962;2022-08-19T04:19:00;19.90;99.90
13336;DHT22;6737;51.480;11.962;2022-08-19T04:21:27;19.90;99.90
13336;DHT22;6737;51.480;11.962;2022-08-19T04:23:54;19.90;99.90
13336;DHT22;6737;51.480;11.962;2022-08-19T04:26:29;19.90;99.90
13336;DHT22;6737;51.480;11.962;2022-08-19T04:29:00;19.90;99.90
13336;DHT22;6737;51.480;11.962;2022-08-19T04:31:29;19.90;99.90
13336;DHT22;6737;51.480;11.962;2022-08-19T04:33:57;19.80;99.90
13336;DHT22;6737;51.480;11.962;2022-08-19T04:36:29;19.80;99.90
13336;DHT22;6737;51.480;11.962;2022-08-19T04:39:09;19.80;99.90
13336;DHT22;6737;51.480;11.962;2022-08-19T04:41:36;19.70;99.90
13336;DHT22;6737;51.480;11.962;2022-08-19T04:44:21;19.70;99.90
13336;DHT22;6737;51.480;11.962;2022-08-19T04:46:48;19.70;99.90
13336;DHT22;6737;51.480;11.962;2022-08-19T04:49:17;19.70;99.90
13336;DHT22;6737;51.480;11.962;2022-08-19T04:51:46;19.70;99.90
13336;DHT22;6737;51.480;11.962;2022-08-19T04:54:14;19.70;99.90
13336;DHT22;6737;51.480;11.962;2022-08-19T04:56:40;19.60;99.90
13336;DHT22;6737;51.480;11.962;2022-08-19T04:59:06;19.70;99.90
13336;DHT22;6737;51.480;11.962;2022-08-19T05:01:34;19.70;99.90
13336;DHT22;6737;51.480;11.962;2022-08-19T05:04:04;19.70;99.90
13336;DHT22;6737;51.480;11.962;2022-08-19T05:06:32;19.70;99.90
13336;DHT22;6737;51.480;11.962;2022-08-19T05:09:00;19.60;99.90
13336;DHT22;6737;51.480;11.962;2022-08-19T05:11:29;19.60;99.90
13336;DHT22;6737;51.480;11.962;2022-08-19T05:13:55;19.70;99.90
13336;DHT22;6737;51.480;11.962;2022-08-19T05:16:22;19.60;99.90
13336;DHT22;6737;51.480;11.962;2022-08-19T05:18:48;19.60;99.90
13336;DHT22;6737;51.480;11.962;2022-08-19T05:21:35;19.60;99.90
13336;DHT22;6737;51.480;11.962;2022-08-19T05:24:22;19.70;99.90
13336;DHT22;6737;51.480;11.962;2022-08-19T05:26:51;19.70;99.90
13336;DHT22;6737;51.480;11.962;2022-08-19T05:29:20;19.60;99.90
13336;DHT22;6737;51.480;11.962;2022-08-19T05:31:47;19.60;99.90
13336;DHT22;6737;51.480;11.962;2022-08-19T05:34:16;19.60;99.90
13336;DHT22;6737;51.480;11.962;2022-08-19T05:36:44;19.60;99.90
13336;DHT22;6737;51.480;11.962;2022-08-19T05:39:16;19.60;99.90
13336;DHT22;6737;51.480;11.962;2022-08-19T05:41:44;19.60;99.90
13336;DHT22;6737;51.480;11.962;2022-08-19T05:44:10;19.60;99.90
13336;DHT22;6737;51.480;11.962;2022-08-19T05:46:37;19.60;99.90
13336;DHT22;6737;51.480;11.962;2022-08-19T05:49:05;19.60;99.90
13336;DHT22;6737;51.480;11.962;2022-08-19T05:51:33;19.60;99.90
13336;DHT22;6737;51.480;11.962;2022-08-19T05:54:00;19.60;99.90
13336;DHT22;6737;51.480;11.962;2022-08-19T05:56:26;19.60;99.90
13336;DHT22;6737;51.480;11.962;2022-08-19T05:58:53;19.60;99.90
13336;DHT22;6737;51.480;11.962;2022-08-19T06:01:20;19.60;99.90
13336;DHT22;6737;51.480;11.962;2022-08-19T06:03:46;19.60;99.90
13336;DHT22;6737;51.480;11.962;2022-08-19T06:06:17;19.60;99.90
13336;DHT22;6737;51.480;11.962;2022-08-19T06:08:43;19.60;99.90
13336;DHT22;6737;51.480;11.962;2022-08-19T06:11:16;19.60;99.90
13336;DHT22;6737;51.480;11.962;2022-08-19T06:13:43;19.60;99.90
13336;DHT22;6737;51.480;11.962;2022-08-19T06:16:13;19.60;99.90
13336;DHT22;6737;51.480;11.962;2022-08-19T06:18:52;19.60;99.90
13336;DHT22;6737;51.480;11.962;2022-08-19T06:21:23;19.70;99.90
13336;DHT22;6737;51.480;11.962;2022-08-19T06:23:50;19.70;99.90
13336;DHT22;6737;51.480;11.962;2022-08-19T06:26:18;19.60;99.90
13336;DHT22;6737;51.480;11.962;2022-08-19T06:28:46;19.60;99.90
13336;DHT22;6737;51.480;11.962;2022-08-19T06:31:18;19.70;99.90
13336;DHT22;6737;51.480;11.962;2022-08-19T06:33:47;19.70;99.90
13336;DHT22;6737;51.480;11.962;2022-08-19T06:36:18;19.80;99.90
13336;DHT22;6737;51.480;11.962;2022-08-19T06:38:45;19.80;99.90
13336;DHT22;6737;51.480;11.962;2022-08-19T06:41:10;19.70;99.90
13336;DHT22;6737;51.480;11.962;2022-08-19T06:43:37;19.70;99.90
13336;DHT22;6737;51.480;11.962;2022-08-19T06:46:03;19.80;99.90
13336;DHT22;6737;51.480;11.962;2022-08-19T06:48:30;19.80;99.90
13336;DHT22;6737;51.480;11.962;2022-08-19T06:50:57;19.80;99.90
13336;DHT22;6737;51.480;11.962;2022-08-19T06:53:22;19.80;99.90
13336;DHT22;6737;51.480;11.962;2022-08-19T06:55:48;19.80;99.90
13336;DHT22;6737;51.480;11.962;2022-08-19T06:58:23;19.70;99.90
13336;DHT22;6737;51.480;11.962;2022-08-19T07:00:48;19.80;99.90
13336;DHT22;6737;51.480;11.962;2022-08-19T07:03:16;19.70;99.90
13336;DHT22;6737;51.480;11.962;2022-08-19T07:05:42;19.70;99.90
13336;DHT22;6737;51.480;11.962;2022-08-19T07:08:09;19.80;99.90
13336;DHT22;6737;51.480;11.962;2022-08-19T07:10:36;19.70;99.90
13336;DHT22;6737;51.480;11.962;2022-08-19T07:13:02;19.70;99.90
13336;DHT22;6737;51.480;11.962;2022-08-19T07:15:29;19.70;99.90
13336;DHT22;6737;51.480;11.962;2022-08-19T07:17:56;19.70;99.90
13336;DHT22;6737;51.480;11.962;2022-08-19T07:20:22;19.80;99.90
13336;DHT22;6737;51.480;11.962;2022-08-19T07:22:49;19.80;99.90
13336;DHT22;6737;51.480;11.962;2022-08-19T07:25:16;19.70;99.90
13336;DHT22;6737;51.480;11.962;2022-08-19T07:27:43;19.70;99.90
13336;DHT22;6737;51.480;11.962;2022-08-19T07:30:10;19.70;99.90
13336;DHT22;6737;51.480;11.962;2022-08-19T07:32:37;19.70;99.90
13336;DHT22;6737;51.480;11.962;2022-08-19T07:35:03;19.60;99.90
13336;DHT22;6737;51.480;11.962;2022-08-19T07:37:30;19.60;99.90
13336;DHT22;6737;51.480;11.962;2022-08-19T07:39:56;19.60;99.90
13336;DHT22;6737;51.480;11.962;2022-08-19T07:42:21;19.60;99.90
13336;DHT22;6737;51.480;11.962;2022-08-19T07:44:47;19.50;99.90
13336;DHT22;6737;51.480;11.962;2022-08-19T07:47:13;19.60;99.90
13336;DHT22;6737;51.480;11.962;2022-08-19T07:49:41;19.60;99.90
13336;DHT22;6737;51.480;11.962;2022-08-19T07:52:08;19.60;99.90
13336;DHT22;6737;51.480;11.962;2022-08-19T07:54:36;19.60;99.90
13336;DHT22;6737;51.480;11.962;2022-08-19T07:57:03;19.60;99.90
13336;DHT22;6737;51.480;11.962;2022-08-19T07:59:30;19.60;99.90
13336;DHT22;6737;51.480;11.962;2022-08-19T08:01:57;19.60;99.90
13336;DHT22;6737;51.480;11.962;2022-08-19T08:04:25;19.60;99.90
13336;DHT22;6737;51.480;11.962;2022-08-19T08:07:09;19.50;99.90
13336;DHT22;6737;51.480;11.962;2022-08-19T08:09:53;19.50;99.90
13336;DHT22;6737;51.480;11.962;2022-08-19T08:12:31;19.50;99.90
13336;DHT22;6737;51.480;11.962;2022-08-19T08:15:00;19.50;99.90
13336;DHT22;6737;51.480;11.962;2022-08-19T08:17:30;19.50;99.90
13336;DHT22;6737;51.480;11.962;2022-08-19T08:19:58;19.50;99.90
13336;DHT22;6737;51.480;11.962;2022-08-19T08:22:24;19.50;99.90
13336;DHT22;6737;51.480;11.962;2022-08-19T08:25:17;19.50;99.90
13336;DHT22;6737;51.480;11.962;2022-08-19T08:27:45;19.50;99.90
13336;DHT22;6737;51.480;11.962;2022-08-19T08:30:14;19.40;99.90
13336;DHT22;6737;51.480;11.962;2022-08-19T08:32:41;19.40;99.90
13336;DHT22;6737;51.480;11.962;2022-08-19T08:35:11;19.50;99.90
13336;DHT22;6737;51.480;11.962;2022-08-19T08:37:38;19.50;99.90
13336;DHT22;6737;51.480;11.962;2022-08-19T08:40:29;19.60;99.90
13336;DHT22;6737;51.480;11.962;2022-08-19T08:43:19;19.60;99.90
13336;DHT22;6737;51.480;11.962;2022-08-19T08:45:54;19.60;99.90
13336;DHT22;6737;51.480;11.962;2022-08-19T08:51:26;19.70;99.90
13336;DHT22;6737;51.480;11.962;2022-08-19T08:53:54;19.70;99.90
13336;DHT22;6737;51.480;11.962;2022-08-19T08:56:20;19.70;99.90
13336;DHT22;6737;51.480;11.962;2022-08-19T09:01:21;19.70;99.90
13336;DHT22;6737;51.480;11.962;2022-08-19T09:03:48;19.70;99.90
13336;DHT22;6737;51.480;11.962;2022-08-19T09:06:40;19.60;99.90
13336;DHT22;6737;51.480;11.962;2022-08-19T09:09:25;19.60;99.90
13336;DHT22;6737;51.480;11.962;2022-08-19T09:14:50;19.50;99.90
13336;DHT22;6737;51.480;11.962;2022-08-19T09:17:21;19.50;99.90
13336;DHT22;6737;51.480;11.962;2022-08-19T09:22:36;19.50;99.90
13336;DHT22;6737;51.480;11.962;2022-08-19T09:25:03;19.50;99.90
13336;DHT22;6737;51.480;11.962;2022-08-19T09:27:30;19.50;99.90
13336;DHT22;6737;51.480;11.962;2022-08-19T09:29:57;19.50;99.90
13336;DHT22;6737;51.480;11.962;2022-08-19T09:32:24;19.50;99.90
13336;DHT22;6737;51.480;11.962;2022-08-19T09:34:53;19.50;99.90
13336;DHT22;6737;51.480;11.962;2022-08-19T09:37:20;19.50;99.90
13336;DHT22;6737;51.480;11.962;2022-08-19T09:39:48;19.50;99.90
13336;DHT22;6737;51.480;11.962;2022-08-19T09:42:13;19.50;99.90
13336;DHT22;6737;51.480;11.962;2022-08-19T09:44:40;19.50;99.90
13336;DHT22;6737;51.480;11.962;2022-08-19T09:47:08;19.50;99.90
13336;DHT22;6737;51.480;11.962;2022-08-19T09:49:34;19.50;99.90
13336;DHT22;6737;51.480;11.962;2022-08-19T09:52:00;19.50;99.90
13336;DHT22;6737;51.480;11.962;2022-08-19T09:54:26;19.50;99.90
13336;DHT22;6737;51.480;11.962;2022-08-19T09:56:53;19.60;99.90
13336;DHT22;6737;51.480;11.962;2022-08-19T09:59:20;19.50;99.90
13336;DHT22;6737;51.480;11.962;2022-08-19T10:01:46;19.50;99.90
13336;DHT22;6737;51.480;11.962;2022-08-19T10:04:11;19.50;99.90
13336;DHT22;6737;51.480;11.962;2022-08-19T10:06:39;19.50;99.90
13336;DHT22;6737;51.480;11.962;2022-08-19T10:09:06;19.50;99.90
13336;DHT22;6737;51.480;11.962;2022-08-19T10:11:34;19.60;99.90
13336;DHT22;6737;51.480;11.962;2022-08-19T10:14:03;19.60;99.90
13336;DHT22;6737;51.480;11.962;2022-08-19T10:16:31;19.60;99.90
13336;DHT22;6737;51.480;11.962;2022-08-19T10:18:57;19.70;99.90
13336;DHT22;6737;51.480;11.962;2022-08-19T10:21:29;19.70;99.90
13336;DHT22;6737;51.480;11.962;2022-08-19T10:23:59;19.70;99.90
13336;DHT22;6737;51.480;11.962;2022-08-19T10:26:33;19.70;99.90
13336;DHT22;6737;51.480;11.962;2022-08-19T10:29:00;19.80;99.90
13336;DHT22;6737;51.480;11.962;2022-08-19T10:31:29;19.70;99.90
13336;DHT22;6737;51.480;11.962;2022-08-19T10:33:57;19.80;99.90
13336;DHT22;6737;51.480;11.962;2022-08-19T10:36:34;19.90;99.90
13336;DHT22;6737;51.480;11.962;2022-08-19T10:39:04;19.80;99.90
13336;DHT22;6737;51.480;11.962;2022-08-19T10:41:32;19.80;99.90
13336;DHT22;6737;51.480;11.962;2022-08-19T10:44:04;19.80;99.90
13336;DHT22;6737;51.480;11.962;2022-08-19T10:46:32;19.80;99.90
13336;DHT22;6737;51.480;11.962;2022-08-19T10:49:00;19.90;99.90
13336;DHT22;6737;51.480;11.962;2022-08-19T10:51:27;19.90;99.90
13336;DHT22;6737;51.480;11.962;2022-08-19T10:54:13;20.00;99.90
13336;DHT22;6737;51.480;11.962;2022-08-19T10:56:39;20.10;99.90
13336;DHT22;6737;51.480;11.962;2022-08-19T10:59:23;20.20;99.90
13336;DHT22;6737;51.480;11.962;2022-08-19T11:01:50;20.30;99.90
13336;DHT22;6737;51.480;11.962;2022-08-19T11:04:18;20.30;99.90
13336;DHT22;6737;51.480;11.962;2022-08-19T11:06:46;20.40;99.90
13336;DHT22;6737;51.480;11.962;2022-08-19T11:09:14;20.50;99.90
13336;DHT22;6737;51.480;11.962;2022-08-19T11:11:41;20.60;99.90
13336;DHT22;6737;51.480;11.962;2022-08-19T11:14:12;20.70;99.90
13336;DHT22;6737;51.480;11.962;2022-08-19T11:16:40;20.70;99.90
13336;DHT22;6737;51.480;11.962;2022-08-19T11:19:07;20.80;99.90
13336;DHT22;6737;51.480;11.962;2022-08-19T11:21:36;20.90;99.90
13336;DHT22;6737;51.480;11.962;2022-08-19T11:24:25;20.90;99.90
13336;DHT22;6737;51.480;11.962;2022-08-19T11:26:53;21.00;99.90
13336;DHT22;6737;51.480;11.962;2022-08-19T11:29:25;21.10;99.90
13336;DHT22;6737;51.480;11.962;2022-08-19T11:31:53;21.10;99.90
13336;DHT22;6737;51.480;11.962;2022-08-19T11:34:27;21.20;99.90
13336;DHT22;6737;51.480;11.962;2022-08-19T11:36:54;21.30;99.90
13336;DHT22;6737;51.480;11.962;2022-08-19T11:39:25;21.20;99.90
13336;DHT22;6737;51.480;11.962;2022-08-19T11:41:52;21.10;99.90
13336;DHT22;6737;51.480;11.962;2022-08-19T11:44:18;21.10;99.90
13336;DHT22;6737;51.480;11.962;2022-08-19T11:46:44;21.20;99.90
13336;DHT22;6737;51.480;11.962;2022-08-19T11:49:14;21.40;99.90
13336;DHT22;6737;51.480;11.962;2022-08-19T11:51:40;21.40;99.90
13336;DHT22;6737;51.480;11.962;2022-08-19T11:54:11;21.50;99.90
13336;DHT22;6737;51.480;11.962;2022-08-19T11:56:38;21.50;99.90
13336;DHT22;6737;51.480;11.962;2022-08-19T11:59:04;21.60;99.90
13336;DHT22;6737;51.480;11.962;2022-08-19T12:01:30;21.60;99.90
13336;DHT22;6737;51.480;11.962;2022-08-19T12:03:57;21.50;99.90
13336;DHT22;6737;51.480;11.962;2022-08-19T12:06:29;21.40;99.90
13336;DHT22;6737;51.480;11.962;2022-08-19T12:08:59;21.40;99.90
13336;DHT22;6737;51.480;11.962;2022-08-19T12:11:26;21.40;99.90
13336;DHT22;6737;51.480;11.962;2022-08-19T12:13:52;21.30;99.90
13336;DHT22;6737;51.480;11.962;2022-08-19T12:16:24;21.20;99.90
13336;DHT22;6737;51.480;11.962;2022-08-19T12:18:51;21.30;99.90
13336;DHT22;6737;51.480;11.962;2022-08-19T12:21:21;21.30;99.90
13336;DHT22;6737;51.480;11.962;2022-08-19T12:23:50;21.30;99.90
13336;DHT22;6737;51.480;11.962;2022-08-19T12:26:17;21.20;99.90
13336;DHT22;6737;51.480;11.962;2022-08-19T12:28:43;21.20;99.90
13336;DHT22;6737;51.480;11.962;2022-08-19T12:31:10;21.30;99.90
13336;DHT22;6737;51.480;11.962;2022-08-19T12:33:40;21.30;99.90
13336;DHT22;6737;51.480;11.962;2022-08-19T12:36:09;21.30;99.90
13336;DHT22;6737;51.480;11.962;2022-08-19T12:38:37;21.40;99.90
13336;DHT22;6737;51.480;11.962;2022-08-19T12:41:04;21.50;99.90
13336;DHT22;6737;51.480;11.962;2022-08-19T12:43:34;21.60;99.90
13336;DHT22;6737;51.480;11.962;2022-08-19T12:46:01;21.70;99.90
13336;DHT22;6737;51.480;11.962;2022-08-19T12:48:27;21.80;99.90
13336;DHT22;6737;51.480;11.962;2022-08-19T12:50:53;21.90;99.90
13336;DHT22;6737;51.480;11.962;2022-08-19T12:53:19;21.80;99.90
13336;DHT22;6737;51.480;11.962;2022-08-19T12:55:45;21.80;99.90
13336;DHT22;6737;51.480;11.962;2022-08-19T12:58:11;21.70;99.90
13336;DHT22;6737;51.480;11.962;2022-08-19T13:00:38;21.70;99.90
13336;DHT22;6737;51.480;11.962;2022-08-19T13:03:05;21.80;99.90
13336;DHT22;6737;51.480;11.962;2022-08-19T13:05:32;21.90;99.90
13336;DHT22;6737;51.480;11.962;2022-08-19T13:08:01;21.90;99.90
13336;DHT22;6737;51.480;11.962;2022-08-19T13:10:31;21.90;99.90
13336;DHT22;6737;51.480;11.962;2022-08-19T13:13:01;21.80;99.90
13336;DHT22;6737;51.480;11.962;2022-08-19T13:15:27;21.80;99.90
13336;DHT22;6737;51.480;11.962;2022-08-19T13:17:54;21.70;99.90
13336;DHT22;6737;51.480;11.962;2022-08-19T13:20:22;21.80;99.90
13336;DHT22;6737;51.480;11.962;2022-08-19T13:22:48;21.80;99.90
13336;DHT22;6737;51.480;11.962;2022-08-19T13:25:15;21.80;99.90
13336;DHT22;6737;51.480;11.962;2022-08-19T13:27:44;21.80;99.90
13336;DHT22;6737;51.480;11.962;2022-08-19T13:30:12;21.70;99.90
13336;DHT22;6737;51.480;11.962;2022-08-19T13:32:57;21.70;99.90
13336;DHT22;6737;51.480;11.962;2022-08-19T13:35:57;21.70;99.90
13336;DHT22;6737;51.480;11.962;2022-08-19T13:38:24;21.70;99.90
13336;DHT22;6737;51.480;11.962;2022-08-19T13:40:52;21.60;99.90
13336;DHT22;6737;51.480;11.962;2022-08-19T13:43:19;21.60;99.90
13336;DHT22;6737;51.480;11.962;2022-08-19T13:45:49;21.60;99.90
13336;DHT22;6737;51.480;11.962;2022-08-19T13:48:15;21.60;99.90
13336;DHT22;6737;51.480;11.962;2022-08-19T13:50:43;21.60;99.90
13336;DHT22;6737;51.480;11.962;2022-08-19T13:53:10;21.70;99.90
13336;DHT22;6737;51.480;11.962;2022-08-19T13:55:41;21.70;99.90
13336;DHT22;6737;51.480;11.962;2022-08-19T13:58:08;21.70;99.90
13336;DHT22;6737;51.480;11.962;2022-08-19T14:00:39;21.70;99.90
13336;DHT22;6737;51.480;11.962;2022-08-19T14:03:05;21.60;99.90
13336;DHT22;6737;51.480;11.962;2022-08-19T14:05:32;21.60;99.90
13336;DHT22;6737;51.480;11.962;2022-08-19T14:07:58;21.60;99.90
13336;DHT22;6737;51.480;11.962;2022-08-19T14:10:26;21.60;99.90
13336;DHT22;6737;51.480;11.962;2022-08-19T14:12:58;21.50;99.90
13336;DHT22;6737;51.480;11.962;2022-08-19T14:15:26;21.50;99.90
13336;DHT22;6737;51.480;11.962;2022-08-19T14:17:52;21.40;99.90
13336;DHT22;6737;51.480;11.962;2022-08-19T14:20:19;21.30;99.90
13336;DHT22;6737;51.480;11.962;2022-08-19T14:22:47;21.30;99.90
13336;DHT22;6737;51.480;11.962;2022-08-19T14:25:17;21.20;99.90
13336;DHT22;6737;51.480;11.962;2022-08-19T14:27:44;21.10;99.90
13336;DHT22;6737;51.480;11.962;2022-08-19T14:30:13;21.10;99.90
13336;DHT22;6737;51.480;11.962;2022-08-19T14:32:40;21.00;99.90
13336;DHT22;6737;51.480;11.962;2022-08-19T14:35:09;21.00;99.90
13336;DHT22;6737;51.480;11.962;2022-08-19T14:37:36;21.00;99.90
13336;DHT22;6737;51.480;11.962;2022-08-19T14:40:03;20.90;99.90
13336;DHT22;6737;51.480;11.962;2022-08-19T14:42:29;21.00;99.90
13336;DHT22;6737;51.480;11.962;2022-08-19T14:44:58;20.90;99.90
13336;DHT22;6737;51.480;11.962;2022-08-19T14:47:25;20.90;99.90
13336;DHT22;6737;51.480;11.962;2022-08-19T14:49:53;20.90;99.90
13336;DHT22;6737;51.480;11.962;2022-08-19T14:52:19;20.80;99.90
13336;DHT22;6737;51.480;11.962;2022-08-19T14:54:45;20.80;99.90
13336;DHT22;6737;51.480;11.962;2022-08-19T14:57:13;20.80;99.90
13336;DHT22;6737;51.480;11.962;2022-08-19T14:59:43;20.80;99.90
13336;DHT22;6737;51.480;11.962;2022-08-19T15:02:10;20.80;99.90
13336;DHT22;6737;51.480;11.962;2022-08-19T15:04:37;20.80;99.90
13336;DHT22;6737;51.480;11.962;2022-08-19T15:07:03;20.70;99.90
13336;DHT22;6737;51.480;11.962;2022-08-19T15:09:33;20.80;99.90
13336;DHT22;6737;51.480;11.962;2022-08-19T15:12:00;20.70;99.90
13336;DHT22;6737;51.480;11.962;2022-08-19T15:14:28;20.80;99.90
13336;DHT22;6737;51.480;11.962;2022-08-19T15:16:58;20.70;99.90
13336;DHT22;6737;51.480;11.962;2022-08-19T15:19:24;20.70;99.90
13336;DHT22;6737;51.480;11.962;2022-08-19T15:21:49;20.80;99.90
13336;DHT22;6737;51.480;11.962;2022-08-19T15:24:15;20.80;99.90
13336;DHT22;6737;51.480;11.962;2022-08-19T15:26:43;20.80;99.90
13336;DHT22;6737;51.480;11.962;2022-08-19T15:29:09;20.90;99.90
13336;DHT22;6737;51.480;11.962;2022-08-19T15:31:40;20.90;99.90
13336;DHT22;6737;51.480;11.962;2022-08-19T15:34:06;20.90;99.90
13336;DHT22;6737;51.480;11.962;2022-08-19T15:36:32;21.00;99.90
13336;DHT22;6737;51.480;11.962;2022-08-19T15:38:58;21.00;99.90
13336;DHT22;6737;51.480;11.962;2022-08-19T15:41:28;21.00;99.90
13336;DHT22;6737;51.480;11.962;2022-08-19T15:44:00;21.00;99.90
13336;DHT22;6737;51.480;11.962;2022-08-19T15:46:28;21.00;99.90
13336;DHT22;6737;51.480;11.962;2022-08-19T15:48:56;21.10;99.90
13336;DHT22;6737;51.480;11.962;2022-08-19T15:51:23;21.10;99.90
13336;DHT22;6737;51.480;11.962;2022-08-19T15:53:50;21.10;99.90